ADDS METAR Data INFO
IDs: Format: Raw Decoded Include TAF

Data at: 0349 UTC 20 Feb 2018

KALX 200335Z AUTO 15004KT 10SM BKN047 BKN060 BKN070 20/18 A3026 RMK AO2 T02000175
KALX 200315Z AUTO 13004KT 10SM SCT045 BKN070 20/18 A3026 RMK AO2 T01990175
KALX 200255Z AUTO 00000KT 10SM SCT046 SCT050 BKN070 20/18 A3026 RMK AO2 T02000177
KALX 200235Z AUTO 00000KT 10SM SCT046 SCT060 BKN070 19/18 A3026 RMK AO2 T01920177
KALX 200215Z AUTO 00000KT 10SM SCT048 BKN070 19/18 A3025 RMK AO2 T01910176
KALX 200155Z AUTO 00000KT 10SM SCT048 SCT055 BKN070 18/18 A3025 RMK AO2 T01820181
KALX 200135Z AUTO 00000KT 10SM BKN048 BKN055 OVC070 19/18 A3025 RMK AO2 T01880175
KALX 200115Z AUTO 00000KT 10SM SCT049 BKN060 BKN070 19/17 A3024 RMK AO2 T01850174
KALX 200055Z AUTO 00000KT 10SM SCT050 SCT070 20/17 A3024 RMK AO2 T02010174
KALX 200035Z AUTO 00000KT 10SM BKN070 20/18 A3023 RMK AO2 T01960175
KALX 200015Z AUTO 00000KT 10SM BKN070 20/18 A3023 RMK AO2 T02010175
KALX 192355Z AUTO 00000KT 10SM BKN070 21/18 A3023 RMK AO2 T02050175 10247 20205
KALX 192335Z AUTO 00000KT 10SM BKN070 22/18 A3023 RMK AO2 T02150177
KALX 192315Z AUTO 00000KT 10SM BKN070 22/18 A3022 RMK AO2 LTG DSNT NW T02240176
KALX 192255Z AUTO 12003KT 10SM SCT060 BKN070 23/18 A3022 RMK AO2 T02310176
KALX 192235Z AUTO 16003KT 10SM SCT070 23/18 A3022 RMK AO2 T02340177
KALX 192215Z AUTO 12005KT 10SM SCT055 SCT070 24/18 A3021 RMK AO2 T02410178
KALX 192155Z AUTO 13004KT 10SM SCT070 24/18 A3021 RMK AO2 T02350176
KALX 192135Z AUTO 15003KT 10SM SCT048 SCT060 SCT070 24/18 A3021 RMK AO2 T02350175
KALX 192115Z AUTO 13006KT 10SM SCT046 BKN060 BKN070 24/17 A3022 RMK AO2 T02410173
KALX 192055Z AUTO 15008KT 130V200 10SM BKN044 BKN050 BKN070 24/17 A3022 RMK AO2 T02390171
KALX 192035Z AUTO 17007G14KT 130V210 10SM SCT042 SCT050 24/17 A3022 RMK AO2 T02390168
KALX 192015Z AUTO 14007G16KT 110V170 10SM SCT038 SCT043 SCT050 24/18 A3021 RMK AO2 T02380177
KALX 191955Z AUTO 15009KT 10SM SCT036 SCT043 24/17 A3021 RMK AO2 T02350173
KALX 191935Z AUTO 17010G14KT 10SM SCT038 SCT046 SCT050 24/17 A3022 RMK AO2 T02370174
KALX 191915Z AUTO 18009G14KT 10SM SCT030 SCT038 23/18 A3023 RMK AO2 T02290179
KALX 191855Z AUTO 18012G18KT 10SM SCT030 SCT040 23/18 A3024 RMK AO2 T02290179
KALX 191835Z AUTO 17008G15KT 130V210 10SM BKN028 BKN032 22/18 A3025 RMK AO2 T02230179
KALX 191815Z AUTO 19009G18KT 10SM BKN026 BKN032 22/18 A3026 RMK AO2 T02150181
KALX 191755Z AUTO 19008KT 10SM BKN021 BKN030 BKN037 21/18 A3028 RMK AO2 T02120184 10221 20118
KALX 191735Z AUTO 18010G16KT 130V210 10SM BKN021 BKN029 22/18 A3029 RMK AO2 T02160184
KALX 191715Z AUTO 18007G14KT 10SM BKN018 OVC024 21/19 A3029 RMK AO2 T02110187
KALX 191655Z AUTO 16006KT 10SM BKN018 OVC027 21/19 A3030 RMK AO2 T02090190
KALX 191635Z AUTO 15008KT 10SM BKN018 BKN025 BKN050 20/19 A3031 RMK AO2 T02030190
KALX 191615Z AUTO 15006KT 10SM SCT013 BKN018 BKN023 20/19 A3031 RMK AO2 T01970189
KALX 191555Z AUTO 14006KT 10SM BKN010 OVC016 19/19 A3031 RMK AO2 T01870187
KALX 191535Z AUTO 15003KT 10SM OVC006 18/18 A3031 RMK AO2 T01820182
KALX 191515Z AUTO 16004KT 10SM OVC004 18/18 A3031 RMK AO2 T01770177
KALX 191455Z AUTO 16005KT 7SM OVC004 17/17 A3031 RMK AO2 T01730173
KALX 191435Z AUTO 16003KT 5SM BR OVC004 17/17 A3031 RMK AO2 T01700170
KALX 191415Z AUTO 00000KT 3SM BR OVC004 17/17 A3030 RMK AO2 T01680168
KALX 191355Z AUTO 20003KT 3SM BR OVC004 17/17 A3029 RMK AO2 T01650165
KALX 191335Z AUTO 00000KT 2 1/2SM BR OVC002 16/16 A3029 RMK AO2 T01630163
KALX 191315Z AUTO 00000KT 1 1/2SM BR OVC002 16/16 A3029 RMK AO2 T01550155
KALX 191255Z AUTO 00000KT 1SM BR OVC002 15/15 A3029 RMK AO2 T01530153
KALX 191235Z AUTO 00000KT 1/2SM FG OVC002 14/14 A3028 RMK AO2 T01380138
KALX 191215Z AUTO 00000KT 1/4SM FG OVC002 13/13 A3027 RMK AO2 T01300130
KALX 191155Z AUTO 00000KT 3/4SM BR OVC002 12/12 A3026 RMK AO2 T01210121 10145 20111
KALX 191135Z AUTO 00000KT 1/2SM FG OVC002 12/12 A3026 RMK AO2 T01190119
KALX 191115Z AUTO 00000KT 1 3/4SM BR OVC002 11/11 A3026 RMK AO2 T01140114
KALX 191055Z AUTO 00000KT 2SM BR OVC002 11/11 A3026 RMK AO2 T01140114
KALX 191035Z AUTO 00000KT 4SM BR OVC002 12/12 A3026 RMK AO2 T01150115
KALX 191015Z AUTO 00000KT 7SM OVC002 11/11 A3024 RMK AO2 T01130113
KALX 190955Z AUTO 00000KT 2 1/2SM BR BKN002 OVC075 13/13 A3024 RMK AO2 VIS 1 1/4V5 T01260126
KALX 190935Z AUTO 00000KT 10SM SCT002 BKN075 13/13 A3023 RMK AO2 T01260126
KALX 190915Z AUTO 00000KT 10SM SCT075 13/13 A3023 RMK AO2 T01250125
KALX 190855Z AUTO 00000KT 10SM CLR 13/13 A3023 RMK AO2 T01300130
KALX 190835Z AUTO 00000KT 10SM CLR 14/14 A3023 RMK AO2 T01360136
KALX 190815Z AUTO 00000KT 10SM CLR 13/13 A3022 RMK AO2 T01330133
KALX 190755Z AUTO 00000KT 10SM CLR 14/14 A3022 RMK AO2 T01360136
KALX 190735Z AUTO 00000KT 10SM CLR 13/13 A3021 RMK AO2 T01340134
KALX 190715Z AUTO 00000KT 10SM CLR 14/14 A3022 RMK AO2 T01370137
KALX 190655Z AUTO 00000KT 10SM CLR 14/14 A3023 RMK AO2 T01390139
KALX 190635Z AUTO 00000KT 10SM SCT040 SCT047 SCT055 14/14 A3023 RMK AO2 T01410141
KALX 190615Z AUTO 00000KT 10SM BKN040 OVC048 15/15 A3023 RMK AO2 T01450145
KALX 190555Z AUTO 00000KT 10SM BKN041 BKN050 OVC070 15/15 A3023 RMK AO2 T01450145 10157 20140
KALX 190535Z AUTO 00000KT 10SM BKN041 BKN070 14/14 A3023 RMK AO2 T01430143
KALX 190515Z AUTO 00000KT 10SM SCT048 SCT060 SCT070 14/14 A3023 RMK AO2 T01400140
KALX 190455Z AUTO 00000KT 10SM SCT050 BKN070 14/14 A3023 RMK AO2 T01400140 401660106
KALX 190435Z AUTO 00000KT 10SM SCT050 OVC060 14/14 A3023 RMK AO2 T01410141
KALX 190415Z AUTO 00000KT 10SM BKN060 14/14 A3023 RMK AO2 T01410140
KALX 190355Z AUTO 00000KT 10SM SCT065 14/14 A3024 RMK AO2 T01410140
KALX 190335Z AUTO 00000KT 10SM BKN065 15/14 A3024 RMK AO2 T01450141
KALX 190315Z AUTO 00000KT 10SM OVC065 15/14 A3024 RMK AO2 T01450141
KALX 190255Z AUTO 00000KT 10SM OVC065 14/14 A3024 RMK AO2 T01430142
KALX 190235Z AUTO 00000KT 10SM BKN065 14/14 A3024 RMK AO2 T01420141
KALX 190215Z AUTO 00000KT 10SM CLR 14/14 A3024 RMK AO2 T01420141
KALX 190155Z AUTO 05003KT 10SM CLR 15/14 A3024 RMK AO2 T01450141
KALX 190135Z AUTO 00000KT 10SM CLR 15/14 A3023 RMK AO2 T01450142
KALX 190115Z AUTO 00000KT 10SM CLR 15/14 A3023 RMK AO2 T01450142
KALX 190055Z AUTO 00000KT 10SM SCT110 15/14 A3023 RMK AO2 T01480142
KALX 190035Z AUTO 00000KT 10SM CLR 15/14 A3023 RMK AO2 T01500142
KALX 190015Z AUTO 00000KT 10SM SCT035 15/14 A3022 RMK AO2 T01520143
KALX 182355Z AUTO 04003KT 10SM BKN033 BKN090 16/15 A3022 RMK AO2 T01580145 10166 20133
KALX 182335Z AUTO 05003KT 10SM SCT033 BKN090 16/15 A3022 RMK AO2 T01600145
KALX 182315Z AUTO 00000KT 10SM SCT090 16/15 A3022 RMK AO2 T01640147
KALX 182255Z AUTO 00000KT 10SM SCT031 17/15 A3022 RMK AO2 T01650148
KALX 182235Z AUTO 08003KT 10SM OVC029 17/15 A3021 RMK AO2 T01650146
KALX 182215Z AUTO 04003KT 10SM SCT027 OVC031 17/15 A3021 RMK AO2 T01650145
KALX 182155Z AUTO 00000KT 10SM OVC033 17/15 A3021 RMK AO2 T01650145
KALX 182135Z AUTO 14003KT 10SM SCT019 SCT024 OVC031 17/14 A3021 RMK AO2 T01650144
KALX 182115Z AUTO 00000KT 10SM OVC019 16/14 A3021 RMK AO2 T01640142
KALX 182055Z AUTO 00000KT 10SM SCT015 BKN022 BKN028 16/14 A3021 RMK AO2 T01630139
KALX 182035Z AUTO 00000KT 10SM SCT015 BKN022 BKN028 16/14 A3021 RMK AO2 T01600136
KALX 182015Z AUTO 00000KT 10SM BKN022 BKN033 BKN045 15/13 A3021 RMK AO2 T01530133
KALX 181955Z AUTO 10003KT 10SM BKN022 BKN033 15/13 A3021 RMK AO2 T01500130
KALX 181935Z AUTO 00000KT 10SM OVC020 15/13 A3022 RMK AO2 T01450126
KALX 181915Z AUTO 00000KT 10SM OVC014 14/13 A3023 RMK AO2 T01420126
KALX 181855Z AUTO 11003KT 10SM OVC014 14/12 A3023 RMK AO2 T01400123
KALX 181835Z AUTO 00000KT 10SM OVC014 14/12 A3024 RMK AO2 T01350118
KALX 181815Z AUTO 00000KT 10SM BKN016 OVC020 14/12 A3025 RMK AO2 T01350117
KALX 181755Z AUTO 10003KT 10SM SCT015 OVC021 13/12 A3026 RMK AO2 T01330116 10133 20106
KALX 181735Z AUTO 00000KT 10SM OVC015 13/12 A3026 RMK AO2 T01290115
KALX 181715Z AUTO 05003KT 10SM OVC015 13/11 A3027 RMK AO2 T01250112
KALX 181655Z AUTO 05004KT 10SM OVC015 12/11 A3028 RMK AO2 T01210109
KALX 181635Z AUTO 06003KT 7SM RA SCT005 SCT008 OVC015 12/11 A3028 RMK AO2 T01160111
KALX 181615Z AUTO 08004KT 7SM -RA SCT005 BKN017 OVC026 12/11 A3028 RMK AO2 T01170111
KALX 181555Z AUTO 06003KT 10SM SCT003 BKN017 BKN025 12/10 A3028 RMK AO2 T01180104